• Join FlightAware (Why Join?)
  • Login
  • US Flag 
12:23PM EDT


 

Airport Tracker/Info


-or-


 

Live Flight TrackerFlight Track Log ✈ N588AC ✈ 06-Jul-2013 ✈ 5A1 - KBCB

Flight Track Log - Related Links

Times and Time Zones

All times are in EDT time to prevent confusion due to time zone crossing. See the N588AC flight status page for this flight to view local times or setup timezone preferences in your user account.

Time Position Orientation Groundspeed Altitude Reporting Facility
EDT Latitude Longitude Course Direction KTS MPH feet Rate Location/Type
04:03PM 37.3955 -80.5019 157° South  Level Estimated
04:04PM 37.3929 -80.5006 158° South  Level Estimated
04:05PM 37.3903 -80.4993 158° South  Level Estimated
04:06PM 37.3878 -80.4980 158° South  Level Estimated
04:07PM 37.3852 -80.4967 158° South  Level Estimated
04:08PM 37.3827 -80.4955 158° South  Level Estimated
04:09PM 37.3801 -80.4942 158° South  Level Estimated
04:10PM 37.3775 -80.4929 158° South  Level Estimated
04:11PM 37.3750 -80.4916 158° South  Level Estimated
04:12PM 37.3724 -80.4903 158° South  Level Estimated
04:13PM 37.3699 -80.4891 158° South  Level Estimated
04:14PM 37.3673 -80.4878 158° South  Level Estimated
04:15PM 37.3648 -80.4865 158° South  Level Estimated
04:16PM 37.3622 -80.4852 158° South  Level Estimated
04:17PM 37.3596 -80.4839 158° South  Level Estimated
04:18PM 37.3571 -80.4827 158° South  Level Estimated
04:19PM 37.3545 -80.4814 158° South  Level Estimated
04:20PM 37.3520 -80.4801 158° South  Level Estimated
04:21PM 37.3494 -80.4788 158° South  Level Estimated
04:22PM 37.3469 -80.4775 158° South  Level Estimated
04:23PM 37.3443 -80.4763 158° South  Level Estimated
04:24PM 37.3418 -80.4750 158° South  Level Estimated
04:25PM 37.3392 -80.4737 158° South  Level Estimated
04:26PM 37.3366 -80.4724 158° South  Level Estimated
04:27PM 37.3341 -80.4711 158° South  Level Estimated
04:28PM 37.3315 -80.4699 158° South  Level Estimated
04:29PM 37.3290 -80.4686 158° South  Level Estimated
04:30PM 37.3264 -80.4673 158° South  Level Estimated
04:31PM 37.3239 -80.4660 158° South  Level Estimated
04:32PM 37.3213 -80.4647 158° South  Level Estimated
04:33PM 37.3187 -80.4635 158° South  Level Estimated
04:34PM 37.3162 -80.4622 158° South  Level Estimated
04:35PM 37.3136 -80.4609 158° South  Level Estimated
04:36PM 37.3111 -80.4596 158° South  Level Estimated
04:37PM 37.3085 -80.4583 158° South  Level Estimated
04:38PM 37.3060 -80.4571 158° South  Level Estimated
04:39PM 37.3034 -80.4558 158° South  Level Estimated
04:40PM 37.3008 -80.4545 158° South  Level Estimated
04:41PM 37.2983 -80.4532 158° South  Level Estimated
04:42PM 37.2957 -80.4519 158° South  Level Estimated
04:43PM 37.2932 -80.4507 158° South  Level Estimated
04:44PM 37.2906 -80.4494 158° South  Level Estimated
04:45PM 37.2881 -80.4481 158° South  Level Estimated
04:46PM 37.2855 -80.4468 158° South  Level Estimated
04:47PM 37.2830 -80.4455 158° South  Level Estimated
04:48PM 37.2804 -80.4443 158° South  Level Estimated
04:49PM 37.2778 -80.4430 158° South  Level Estimated
04:50PM 37.2753 -80.4417 158° South  Level Estimated
04:51PM 37.2727 -80.4404 158° South  Level Estimated
04:52PM 37.2702 -80.4391 158° South  Level Estimated
04:53PM 37.2676 -80.4379 158° South  Level Estimated
04:54PM 37.2650 -80.4366 158° South  Level Estimated
04:55PM 37.2625 -80.4353 158° South  Level Estimated
04:56PM 37.2599 -80.4340 158° South  Level Estimated
04:57PM 37.2574 -80.4327 158° South  Level Estimated
04:58PM 37.2548 -80.4315 158° South  Level Estimated
04:59PM 37.2523 -80.4302 158° South  Level Estimated
05:00PM 37.2497 -80.4289 158° South  Level Estimated
05:01PM 37.2472 -80.4276 158° South  Level Estimated
05:02PM 37.2446 -80.4263 158° South  Level Estimated
05:03PM 37.2420 -80.4251 158° South  Level Estimated
05:04PM 37.2395 -80.4238 158° South  Level Estimated
05:05PM 37.2369 -80.4225 158° South  Level Estimated
05:06PM 37.2344 -80.4212 158° South  Level Estimated
05:07PM 37.2318 -80.4199 158° South  Level Estimated
05:08PM 37.2293 -80.4187 158° South  Level Estimated
05:09PM 37.2267 -80.4174 158° South  Level Estimated
05:10PM 37.2242 -80.4161 158° South  Level Estimated
05:11PM 37.2216 -80.4148 158° South  Level Estimated
05:12PM 37.2190 -80.4135 158° South  Level Estimated
05:13PM 37.2165 -80.4123 158° South  Level Estimated
05:14PM 37.2139 -80.4110 158° South  Level Estimated
05:15PM 37.2114 -80.4097 158° South  Level Estimated
05:16PM 37.2088 -80.4084 158° South  Level Estimated
05:17PM 37.2076 -80.4078 158° South  Level Estimated
05:18PM 37.2076 -80.4078 247° West  Level Estimated
05:19PM 37.2076 -80.4078 247° West  Level Estimated
05:20PM 37.2076 -80.4078 247° West  Level Estimated
05:21PM 37.2076 -80.4078 247° West  Level Estimated
05:22PM 37.2076 -80.4078 247° West  Level Estimated
05:23PM 37.2076 -80.4078 247° West  Level Estimated
05:24PM 37.2076 -80.4078 247° West  Level Estimated
05:25PM 37.2076 -80.4078 247° West  Level Estimated
05:26PM 37.2076 -80.4078 247° West  Level Estimated
05:27PM 37.2076 -80.4078 247° West  Level Estimated
05:28PM 37.2076 -80.4078 247° West  Level Estimated
05:29PM 37.2076 -80.4078 247° West  Level Estimated
05:30PM 37.2076 -80.4078 247° West  Level Estimated
05:31PM 37.2076 -80.4078 247° West  Level Estimated
05:32PM 37.2076 -80.4078 247° West  Level Estimated
05:33PM 37.2076 -80.4078 247° West  Level Estimated